IDBO2: Little River, Idabel, OK

Data processed at Thu May 23 2019 23:50


All information presented herein is the property of the government of the United States of America and may be revised or deleted at any time without prior notice.
Dissemination of this information without the expressed written consent of the Public Affairs Office, Tulsa District U.S. Army Corps of Engineers is strictly prohibited.
These data are gathered electronically and, as presented, have not undergone any form of quality control. These data are not guaranteed to be valid or correct.
Go to home page.
Go to station list.
Go to home page.

Upstream stations:

Downstream station:
Previous Day
Next Day
Current Day
    
SHEF ID:       IDBO2     Little River blw Lukfata Creek
STATION TYPE:  
Regulating: Stage =    27.50, Flow =    12499

               PRECIP     STAGE  RIV-FLOW  BAT-LOAD
                   in        ft       cfs      volt
              Ccp-Rev   Ccp-Rev   Ccp-Rev   Ccp-Rev
(US/Central)
05/23 00:00      0.00     17.46      5796     12.89
05/23 01:00      0.00     17.45      5790     12.89
05/23 02:00      0.00     17.45      5790     12.89
05/23 03:00      0.00     17.44      5784     12.81
05/23 04:00      0.00     17.45      5790     12.81
05/23 05:00      0.00     17.44      5784     12.81
05/23 06:00      0.00     17.44      5784     12.81
05/23 07:00      0.00     17.45      5790     12.81
05/23 08:00      0.00     17.45      5790     12.89
05/23 09:00      0.00     17.46      5796     13.29
05/23 10:00      0.00     17.45      5790     13.68
05/23 11:00      0.00     17.46      5796     13.76
05/23 12:00      0.00     17.45      5790     13.68
05/23 13:00      0.00     17.47      5802     13.53
05/23 14:00      0.00     17.48      5808     13.29
05/23 15:00      0.00     17.46      5796     13.29
05/23 16:00      0.00     17.46      5796     13.29
05/23 17:00      0.00     17.45      5790     13.21
05/23 18:00      0.00     17.44      5784     13.29
05/23 19:00      0.00     17.43      5777     13.29
05/23 20:00      0.00     17.41      5765     13.29
05/23 21:00      0.00     17.40      5759     13.05
05/23 22:00      0.00     17.39      5753     12.97
05/23 23:00      0.00     17.37      5741     12.97